Time;durP1;ratioP1;P1;durP2;ratioP2;P2;SDS_P1;SDS_P2;PMS_P1;PMS_P2;Temp;Humidity;BMP_temperature;BMP_pressure;BME280_temperature;BME280_humidity;BME280_pressure;Samples;Min_cycle;Max_cycle;Signal;HPM_P1;HPM_P2
2021/12/13 00:00:55;;;;;;;31.30;28.00;;;6.60;1.00;7.80;101525.00;;;;5072689;28;20505;-77
2021/12/13 00:03:30;;;;;;;32.70;28.20;;;6.60;1.00;7.90;101513.00;;;;5060991;28;20531;-79
2021/12/13 00:06:07;;;;;;;32.53;29.30;;;6.60;1.00;7.90;101510.00;;;;5076053;28;20458;-77
2021/12/13 00:08:40;;;;;;;30.80;27.53;;;6.60;1.00;7.90;101501.00;;;;5074011;28;20448;-77
2021/12/13 00:11:14;;;;;;;33.70;28.80;;;6.70;1.00;7.90;101524.00;;;;5054084;28;20458;-79
2021/12/13 00:13:46;;;;;;;31.60;28.20;;;6.70;1.00;7.90;101520.00;;;;5068190;28;20979;-78
2021/12/13 00:16:17;;;;;;;31.60;28.20;;;6.70;1.00;8.00;101524.00;;;;5064485;28;20447;-79
2021/12/13 00:18:49;;;;;;;29.43;26.43;;;6.70;1.00;7.90;101520.00;;;;5071964;28;20472;-78
2021/12/13 00:21:23;;;;;;;28.93;25.83;;;6.70;1.00;8.00;101523.00;;;;5071600;28;20458;-78
2021/12/13 00:23:56;;;;;;;31.47;26.13;;;6.70;1.00;7.90;101526.00;;;;5075967;28;20473;-78
2021/12/13 00:26:33;;;;;;;27.63;24.93;;;6.70;1.00;7.90;101521.00;;;;5070992;28;20469;-79
2021/12/13 00:29:10;;;;;;;29.53;26.70;;;6.70;1.00;7.90;101502.00;;;;5057835;28;20840;-78
2021/12/13 00:31:49;;;;;;;27.43;24.47;;;6.70;1.00;8.00;101526.00;;;;5070532;28;20450;-79
2021/12/13 00:34:32;;;;;;;28.10;25.07;;;6.70;1.00;8.00;101495.00;;;;5071133;28;20506;-78
2021/12/13 00:37:09;;;;;;;28.80;24.87;;;6.70;1.00;8.00;101524.00;;;;5061149;28;20447;-78
2021/12/13 00:39:45;;;;;;;27.73;24.73;;;6.70;1.00;8.10;101526.00;;;;5072086;28;20451;-79
2021/12/13 00:42:16;;;;;;;26.33;23.63;;;6.80;1.00;8.10;101513.00;;;;5076220;28;20617;-79
2021/12/13 00:44:49;;;;;;;27.33;22.90;;;6.80;1.00;8.10;101528.00;;;;5075729;28;20479;-76
2021/12/13 00:47:24;;;;;;;25.33;23.03;;;6.80;1.00;8.00;101524.00;;;;5074572;28;20464;-78
2021/12/13 00:49:58;;;;;;;25.67;23.03;;;6.80;1.00;8.10;101517.00;;;;5075044;28;20470;-78
2021/12/13 00:52:31;;;;;;;25.90;22.27;;;6.80;1.00;8.10;101527.00;;;;5075472;28;20474;-78
2021/12/13 00:55:05;;;;;;;25.40;22.70;;;6.80;1.00;8.10;101529.00;;;;5085734;28;20455;-78
2021/12/13 00:57:46;;;;;;;25.60;23.10;;;6.80;1.00;8.10;101525.00;;;;5053306;28;20451;-78
2021/12/13 01:00:23;;;;;;;26.87;22.27;;;6.80;1.00;8.10;101529.00;;;;5055063;28;20903;-77
2021/12/13 01:02:58;;;;;;;24.17;21.10;;;6.80;1.00;8.00;101522.00;;;;5070197;28;20481;-77
2021/12/13 01:06:11;;;;;;;23.80;21.53;;;6.80;1.00;8.00;101505.00;;;;5057229;28;20525;-78
2021/12/13 01:09:38;;;;;;;26.00;22.70;;;6.80;1.00;8.00;101534.00;;;;5076829;28;20450;-78
2021/12/13 01:12:14;;;;;;;23.97;21.47;;;6.80;1.00;8.00;101540.00;;;;5065468;28;20482;-78
2021/12/13 01:14:56;;;;;;;24.87;22.27;;;6.80;1.00;8.10;101532.00;;;;5067878;28;20497;-78
2021/12/13 01:17:45;;;;;;;24.17;21.57;;;6.80;1.00;8.10;101540.00;;;;5053516;22;20499;-78
2021/12/13 01:20:26;;;;;;;23.03;20.30;;;6.80;1.00;8.10;101511.00;;;;5045308;28;20456;-78
2021/12/13 01:23:01;;;;;;;23.20;20.87;;;6.80;1.00;8.10;101539.00;;;;5045736;28;20445;-79
2021/12/13 01:25:48;;;;;;;23.20;20.10;;;6.80;1.00;8.10;101556.00;;;;5035263;28;20440;-77
2021/12/13 01:28:26;;;;;;;22.50;20.20;;;6.80;1.00;8.00;101533.00;;;;5024041;28;20479;-79
2021/12/13 01:31:04;;;;;;;23.27;20.80;;;6.80;1.00;8.10;101553.00;;;;5020637;28;20767;-79
2021/12/13 01:33:33;;;;;;;22.67;20.33;;;6.80;1.00;8.20;101548.00;;;;5055688;28;20440;-76
2021/12/13 01:36:06;;;;;;;22.20;19.93;;;6.80;1.00;8.20;101560.00;;;;5056922;28;20437;-77
2021/12/13 01:38:41;;;;;;;24.27;20.57;;;6.90;1.00;8.20;101558.00;;;;5056794;28;20433;-78
2021/12/13 01:41:14;;;;;;;23.00;20.60;;;6.90;1.00;8.20;101551.00;;;;5051778;28;20459;-79
2021/12/13 01:43:49;;;;;;;21.73;19.50;;;6.90;1.00;8.20;101511.00;;;;5028554;28;20536;-79
2021/12/13 01:46:21;;;;;;;22.00;18.60;;;6.90;1.00;8.20;101553.00;;;;5023533;28;20936;-76
2021/12/13 01:48:52;;;;;;;19.83;17.93;;;6.90;1.00;8.20;101550.00;;;;5035040;28;20449;-77
2021/12/13 01:51:26;;;;;;;20.83;18.53;;;6.90;1.00;8.20;101518.00;;;;5035111;28;20828;-76
2021/12/13 01:53:59;;;;;;;22.10;18.87;;;6.90;1.00;8.10;101567.00;;;;5034989;28;20801;-76
2021/12/13 01:56:43;;;;;;;20.23;18.30;;;6.90;1.00;8.20;101562.00;;;;5018803;28;20472;-79
2021/12/13 01:59:43;;;;;;;21.10;18.87;;;6.90;1.00;8.20;101555.00;;;;5041512;28;20540;-79
2021/12/13 02:02:25;;;;;;;24.67;19.10;;;6.90;1.00;8.20;101571.00;;;;5039778;28;20441;-80
2021/12/13 02:05:09;;;;;;;20.70;18.57;;;6.90;1.00;8.30;101536.00;;;;5020889;28;20468;-79
2021/12/13 02:07:45;;;;;;;21.17;19.07;;;7.00;1.00;8.40;101551.00;;;;5039547;28;20551;-80
2021/12/13 02:10:21;;;;;;;21.03;18.83;;;7.00;1.00;8.30;101567.00;;;;5038683;28;20472;-80
2021/12/13 02:12:56;;;;;;;21.47;18.30;;;7.00;1.00;8.30;101555.00;;;;5034771;28;20464;-79
2021/12/13 02:18:21;;;;;;;21.23;18.93;;;7.00;1.00;8.30;101528.00;;;;5020245;28;20629;-79
2021/12/13 02:21:01;;;;;;;21.17;17.83;;;7.00;1.00;8.40;101554.00;;;;5037894;28;20467;-77
2021/12/13 02:23:32;;;;;;;19.23;17.23;;;7.00;1.00;8.40;101565.00;;;;5032360;28;21116;-75
2021/12/13 02:26:01;;;;;;;23.10;18.43;;;7.00;1.00;8.40;101534.00;;;;5032773;28;20490;-79
2021/12/13 02:28:34;;;;;;;20.73;18.53;;;7.00;1.00;8.50;101567.00;;;;5036198;28;20463;-80
2021/12/13 02:31:08;;;;;;;23.60;19.43;;;7.00;1.00;8.40;101539.00;;;;5046005;28;20473;-76
2021/12/13 02:33:42;;;;;;;22.90;20.33;;;7.00;1.00;8.40;101568.00;;;;5012532;28;20465;-78
2021/12/13 02:36:16;;;;;;;21.47;19.30;;;7.00;1.00;8.30;101569.00;;;;5026986;28;20507;-77
2021/12/13 02:38:50;;;;;;;22.93;20.43;;;7.00;1.00;8.20;101566.00;;;;5030942;28;20428;-77
2021/12/13 02:41:23;;;;;;;22.43;20.23;;;6.90;1.00;8.20;101552.00;;;;5011035;28;20455;-76
2021/12/13 02:43:58;;;;;;;24.97;21.50;;;6.90;1.00;8.20;101555.00;;;;5012835;28;20449;-76
2021/12/13 02:46:27;;;;;;;23.27;20.97;;;6.90;1.00;8.10;101565.00;;;;5038194;28;20992;-79
2021/12/13 02:49:00;;;;;;;24.50;21.97;;;6.80;1.00;8.00;101562.00;;;;5038425;28;20971;-76
2021/12/13 02:51:32;;;;;;;24.20;21.70;;;6.80;1.00;8.00;101542.00;;;;5031732;28;20477;-76
2021/12/13 02:54:08;;;;;;;27.63;23.07;;;6.80;1.00;8.00;101514.00;;;;5015105;28;20467;-78
2021/12/13 02:56:46;;;;;;;24.00;21.70;;;6.80;1.00;8.10;101547.00;;;;5032041;28;20524;-79
2021/12/13 02:59:16;;;;;;;24.67;22.27;;;6.80;1.00;8.10;101557.00;;;;5016318;28;20825;-80
2021/12/13 03:01:49;;;;;;;24.23;21.63;;;6.80;1.00;8.10;101560.00;;;;5025929;28;20536;-76
2021/12/13 03:04:22;;;;;;;24.30;21.80;;;6.80;1.00;8.00;101559.00;;;;5015046;28;20445;-77
2021/12/13 03:06:55;;;;;;;23.63;21.13;;;6.90;1.00;8.10;101536.00;;;;5013209;28;20508;-76
2021/12/13 03:09:28;;;;;;;23.43;21.10;;;6.90;1.00;8.10;101576.00;;;;5020641;28;20824;-78
2021/12/13 03:11:58;;;;;;;23.17;20.77;;;6.90;1.00;8.10;101573.00;;;;5032726;28;20485;-78
2021/12/13 03:14:33;;;;;;;25.23;21.13;;;6.90;1.00;8.10;101574.00;;;;5032236;28;20539;-75
2021/12/13 03:17:09;;;;;;;23.63;19.90;;;6.90;1.00;8.10;101550.00;;;;5032507;28;20480;-77
2021/12/13 03:20:05;;;;;;;23.40;21.17;;;6.90;1.00;8.10;101536.00;;;;5034744;28;20539;-75
2021/12/13 03:23:12;;;;;;;22.87;20.60;;;6.90;1.00;8.00;101533.00;;;;5035270;28;20480;-77
2021/12/13 03:26:20;;;;;;;22.97;20.73;;;6.90;1.00;8.10;101592.00;;;;5030915;28;20461;-76
2021/12/13 03:29:09;;;;;;;26.27;20.97;;;6.90;1.00;8.00;101577.00;;;;5025206;28;20455;-77
2021/12/13 03:31:43;;;;;;;23.70;21.43;;;6.90;1.00;8.10;101572.00;;;;5030779;28;20473;-78
2021/12/13 03:34:17;;;;;;;24.60;22.03;;;6.90;1.00;8.10;101568.00;;;;5049414;28;20500;-78
2021/12/13 03:36:53;;;;;;;23.70;21.40;;;6.90;1.00;8.20;101578.00;;;;5032109;28;20571;-75
2021/12/13 03:39:33;;;;;;;23.40;20.97;;;6.90;1.00;8.20;101565.00;;;;5013462;28;20452;-76
2021/12/13 03:42:10;;;;;;;23.57;21.07;;;7.00;1.00;8.30;101571.00;;;;5014274;28;21086;-75
2021/12/13 03:44:46;;;;;;;23.77;21.30;;;7.00;1.00;8.30;101575.00;;;;5018402;28;20941;-78
2021/12/13 03:47:20;;;;;;;24.23;21.67;;;7.00;1.00;8.30;101576.00;;;;5013952;28;20469;-77
2021/12/13 03:49:56;;;;;;;24.10;21.60;;;7.00;1.00;8.40;101562.00;;;;5031145;28;20449;-76
2021/12/13 03:52:30;;;;;;;24.23;21.80;;;7.00;1.00;8.40;101575.00;;;;5024195;28;20481;-75
2021/12/13 03:55:01;;;;;;;25.37;22.87;;;7.00;1.00;8.40;101584.00;;;;5030766;28;21929;-79
2021/12/13 03:57:32;;;;;;;23.07;20.80;;;7.00;1.00;8.40;101496.00;;;;5014415;28;20469;-75
2021/12/13 04:00:01;;;;;;;23.80;21.20;;;7.00;1.00;8.30;101549.00;;;;5030312;28;20453;-77
2021/12/13 04:02:34;;;;;;;26.00;23.30;;;7.10;1.00;8.40;101583.00;;;;5017563;28;20455;-76
2021/12/13 04:05:09;;;;;;;25.60;22.80;;;7.10;1.00;8.40;101564.00;;;;5033696;28;20937;-76
2021/12/13 04:07:42;;;;;;;23.90;21.40;;;7.00;1.00;8.30;101549.00;;;;5034199;28;20468;-76
2021/12/13 04:10:20;;;;;;;24.60;22.20;;;7.10;1.00;8.30;101570.00;;;;5022718;28;20472;-76
2021/12/13 04:12:54;;;;;;;24.90;22.43;;;7.00;1.00;8.30;101549.00;;;;5017719;28;20450;-76
2021/12/13 04:15:34;;;;;;;25.50;22.67;;;7.10;1.00;8.30;101578.00;;;;5029349;28;20455;-75
2021/12/13 04:18:25;;;;;;;25.07;22.67;;;7.10;1.00;8.30;101581.00;;;;5007551;28;20485;-77
2021/12/13 04:20:59;;;;;;;24.73;22.23;;;7.00;1.00;8.30;101552.00;;;;5019613;28;20444;-76
2021/12/13 04:23:28;;;;;;;25.67;22.97;;;7.00;1.00;8.30;101569.00;;;;5042549;28;20459;-75
2021/12/13 04:26:00;;;;;;;24.47;22.20;;;7.00;1.00;8.40;101583.00;;;;5024673;28;20934;-76
2021/12/13 04:28:38;;;;;;;25.33;22.93;;;7.00;1.00;8.30;101579.00;;;;5026587;28;20449;-76
2021/12/13 04:31:10;;;;;;;25.90;23.13;;;7.10;1.00;8.30;101585.00;;;;5017557;28;21000;-77
2021/12/13 04:33:42;;;;;;;24.57;21.97;;;7.00;1.00;8.40;101595.00;;;;5007070;28;20982;-76
2021/12/13 04:36:15;;;;;;;26.43;23.70;;;7.00;1.00;8.40;101598.00;;;;5035120;28;20460;-77
2021/12/13 04:38:51;;;;;;;25.20;22.80;;;7.00;1.00;8.50;101584.00;;;;5035220;28;20456;-76
2021/12/13 04:41:27;;;;;;;26.27;23.47;;;7.10;1.00;8.50;101606.00;;;;5035658;28;20467;-76
2021/12/13 04:44:00;;;;;;;25.10;22.50;;;7.10;1.00;8.60;101602.00;;;;5017908;28;20452;-76
2021/12/13 04:46:32;;;;;;;26.60;23.90;;;7.10;1.00;8.50;101589.00;;;;5033582;28;20476;-76
2021/12/13 04:49:07;;;;;;;26.43;23.63;;;7.10;1.00;8.50;101602.00;;;;5016555;28;20453;-77
2021/12/13 04:51:45;;;;;;;26.87;23.97;;;7.10;1.00;8.50;101584.00;;;;5024483;28;20467;-76
2021/12/13 04:54:17;;;;;;;27.30;24.50;;;7.10;1.00;8.40;101593.00;;;;5015491;28;20544;-76
2021/12/13 04:56:46;;;;;;;26.47;23.77;;;7.10;1.00;8.50;101602.00;;;;5024833;28;20468;-76
2021/12/13 04:59:18;;;;;;;26.83;24.17;;;7.10;1.00;8.50;101565.00;;;;5022800;28;20456;-77
2021/12/13 05:01:51;;;;;;;28.63;25.83;;;7.10;1.00;8.60;101612.00;;;;5030097;28;20531;-77
2021/12/13 05:04:21;;;;;;;26.40;23.70;;;7.10;1.00;8.50;101603.00;;;;5035810;28;20448;-76
2021/12/13 05:06:52;;;;;;;28.00;25.03;;;7.10;1.00;8.40;101584.00;;;;5017243;28;20478;-76
2021/12/13 05:09:24;;;;;;;26.27;23.47;;;7.10;1.00;8.40;101606.00;;;;5035760;28;20465;-76
2021/12/13 05:12:00;;;;;;;28.97;25.20;;;7.10;1.00;8.50;101603.00;;;;5036235;28;20556;-75
2021/12/13 05:14:35;;;;;;;26.73;24.13;;;7.10;1.00;8.40;101588.00;;;;5034770;28;20556;-77
2021/12/13 05:17:11;;;;;;;26.50;23.87;;;7.10;1.00;8.50;101622.00;;;;5016731;28;20509;-76
2021/12/13 05:19:45;;;;;;;26.30;23.67;;;7.10;1.00;8.50;101604.00;;;;5032810;28;20453;-75
2021/12/13 05:22:17;;;;;;;26.37;23.70;;;7.10;1.00;8.40;101606.00;;;;5020263;28;20449;-75
2021/12/13 05:24:50;;;;;;;27.50;24.50;;;7.10;1.00;8.40;101618.00;;;;5031407;28;20502;-75
2021/12/13 05:27:30;;;;;;;25.43;22.80;;;7.10;1.00;8.40;101630.00;;;;5036021;28;20472;-76
2021/12/13 05:30:14;;;;;;;27.20;24.33;;;7.00;1.00;8.40;101616.00;;;;5033774;28;20449;-75
2021/12/13 05:32:47;;;;;;;28.00;25.13;;;7.00;1.00;8.40;101634.00;;;;5019029;28;20472;-75
2021/12/13 05:35:22;;;;;;;27.27;24.60;;;7.00;1.00;8.40;101632.00;;;;5035116;28;20472;-76
2021/12/13 05:37:55;;;;;;;27.10;24.20;;;7.10;1.00;8.50;101609.00;;;;5016161;28;21006;-76
2021/12/13 05:40:26;;;;;;;27.97;23.87;;;7.10;1.00;8.50;101621.00;;;;5032916;28;20535;-76
2021/12/13 05:42:59;;;;;;;27.63;24.60;;;7.10;1.00;8.50;101596.00;;;;5037486;28;20447;-76
2021/12/13 05:45:38;;;;;;;27.20;24.40;;;7.10;1.00;8.50;101626.00;;;;5017928;28;20528;-76
2021/12/13 05:48:10;;;;;;;25.40;22.60;;;7.10;1.00;8.50;101631.00;;;;5035437;28;20503;-78
2021/12/13 05:50:43;;;;;;;27.33;23.70;;;7.10;1.00;8.50;101632.00;;;;5028625;28;20543;-76
2021/12/13 05:53:17;;;;;;;26.07;23.37;;;7.10;1.00;8.50;101632.00;;;;5011183;28;20469;-77
2021/12/13 05:55:53;;;;;;;26.87;24.13;;;7.10;1.00;8.60;101625.00;;;;5029758;28;20493;-77
2021/12/13 05:58:32;;;;;;;25.83;22.13;;;7.30;1.00;8.50;101626.00;;;;5058103;28;20485;-77
2021/12/13 06:01:11;;;;;;;24.10;21.60;;;7.10;1.00;8.50;101614.00;;;;5053420;28;20483;-77
2021/12/13 06:03:50;;;;;;;25.10;22.00;;;7.10;1.00;8.50;101590.00;;;;5055626;28;20429;-80
2021/12/13 06:06:26;;;;;;;24.27;21.67;;;7.10;1.00;8.50;101647.00;;;;5051953;28;20898;-77
2021/12/13 06:08:58;;;;;;;25.53;21.70;;;7.10;1.00;8.50;101608.00;;;;5047356;28;20456;-76
2021/12/13 06:11:33;;;;;;;24.43;21.90;;;7.10;1.00;8.50;101616.00;;;;5023307;28;20825;-79
2021/12/13 06:14:20;;;;;;;22.60;20.27;;;7.10;1.00;8.50;101643.00;;;;5012770;28;21028;-77
2021/12/13 06:17:05;;;;;;;24.47;21.90;;;7.20;1.00;8.60;101643.00;;;;5044366;28;20485;-75
2021/12/13 06:19:36;;;;;;;24.73;21.03;;;7.20;1.00;8.60;101635.00;;;;5034161;28;20899;-77
2021/12/13 06:22:11;;;;;;;25.13;22.53;;;7.20;1.00;8.50;101654.00;;;;5049225;28;20488;-81
2021/12/13 06:24:43;;;;;;;24.90;22.30;;;7.20;1.00;8.70;101653.00;;;;5047042;28;20551;-77
2021/12/13 06:27:18;;;;;;;26.83;21.90;;;7.20;1.00;8.70;101658.00;;;;5032688;28;20484;-79
2021/12/13 06:30:03;;;;;;;23.07;20.63;;;7.20;1.00;8.70;101658.00;;;;5015797;28;20460;-76
2021/12/13 06:32:43;;;;;;;22.67;20.27;;;7.20;1.00;8.60;101671.00;;;;5017026;28;20477;-77
2021/12/13 06:35:41;;;;;;;22.83;20.43;;;7.30;1.00;8.60;101652.00;;;;5017112;28;20487;-77
2021/12/13 06:38:39;;;;;;;23.73;21.33;;;7.30;1.00;8.60;101659.00;;;;5019502;28;20485;-78
2021/12/13 06:41:20;;;;;;;22.67;20.30;;;7.20;1.00;8.60;101669.00;;;;5034880;28;20528;-75
2021/12/13 06:43:53;;;;;;;23.97;21.37;;;7.20;1.00;8.60;101664.00;;;;5042892;28;20449;-76
2021/12/13 06:46:45;;;;;;;23.17;20.87;;;7.20;1.00;8.50;101650.00;;;;5017947;28;20512;-77
2021/12/13 06:49:29;;;;;;;24.37;21.60;;;7.20;1.00;8.40;101658.00;;;;5014744;28;20449;-75
2021/12/13 06:52:01;;;;;;;24.27;21.80;;;7.20;1.00;8.50;101671.00;;;;5034258;28;20558;-76
2021/12/13 06:54:40;;;;;;;25.30;22.90;;;7.20;1.00;8.50;101593.00;;;;5012853;28;20453;-75
2021/12/13 06:57:13;;;;;;;25.33;22.40;;;7.20;1.00;8.50;101676.00;;;;5023366;28;20480;-76
2021/12/13 06:59:50;;;;;;;23.93;21.60;;;7.20;1.00;8.60;101617.00;;;;5032832;28;20463;-75
2021/12/13 07:02:22;;;;;;;24.37;21.93;;;7.20;1.00;8.60;101671.00;;;;5006978;28;20467;-76
2021/12/13 07:05:04;;;;;;;23.10;20.70;;;7.30;1.00;8.60;101674.00;;;;5030252;28;20484;-77
2021/12/13 07:10:15;;;;;;;25.40;22.80;;;7.30;1.00;8.70;101676.00;;;;4991840;28;20482;-75
2021/12/13 07:12:50;;;;;;;24.30;21.90;;;7.30;1.00;8.60;101689.00;;;;4983408;28;20474;-76
2021/12/13 07:15:32;;;;;;;23.83;21.30;;;7.30;1.00;8.80;101661.00;;;;5008897;28;20471;-76
2021/12/13 07:18:17;;;;;;;24.27;21.77;;;7.30;1.00;8.90;101676.00;;;;4992920;28;20474;-75
2021/12/13 07:20:53;;;;;;;23.07;20.63;;;7.40;1.00;8.90;101701.00;;;;5014629;22;20513;-78
2021/12/13 07:23:21;;;;;;;25.07;22.50;;;7.40;1.00;8.90;101661.00;;;;5028886;28;20515;-77
2021/12/13 07:25:52;;;;;;;22.70;20.30;;;7.40;1.00;8.90;101675.00;;;;5014481;28;20450;-77
2021/12/13 07:28:38;;;;;;;24.80;22.20;;;7.40;1.00;8.90;101673.00;;;;5008825;28;20447;-78
2021/12/13 07:31:09;;;;;;;24.43;21.83;;;7.40;1.00;8.90;101712.00;;;;5016609;28;20502;-77
2021/12/13 07:33:42;;;;;;;25.77;23.10;;;7.40;1.00;8.90;101685.00;;;;5011785;28;21228;-77
2021/12/13 07:36:24;;;;;;;23.07;20.73;;;7.40;1.00;9.00;101689.00;;;;5011835;28;20449;-78
2021/12/13 07:38:56;;;;;;;24.57;22.13;;;7.50;1.00;8.80;101700.00;;;;5029372;28;20449;-78
2021/12/13 07:41:27;;;;;;;27.40;22.80;;;7.50;1.00;9.00;101685.00;;;;5019975;28;20470;-78
2021/12/13 07:43:55;;;;;;;23.30;21.00;;;7.50;1.00;8.90;101703.00;;;;5010834;28;20551;-79
2021/12/13 07:46:29;;;;;;;22.40;20.03;;;7.50;1.00;8.90;101674.00;;;;5010835;28;20457;-79
2021/12/13 07:49:03;;;;;;;22.87;20.60;;;7.50;1.00;8.90;101688.00;;;;5033458;28;20580;-78
2021/12/13 07:51:36;;;;;;;22.20;20.03;;;7.50;1.00;8.90;101686.00;;;;5015362;28;20871;-77
2021/12/13 07:54:08;;;;;;;24.50;21.87;;;7.50;1.00;8.80;101696.00;;;;5035040;28;20472;-77
2021/12/13 07:56:52;;;;;;;24.20;21.70;;;7.50;1.00;8.90;101703.00;;;;5019472;28;20568;-78
2021/12/13 07:59:28;;;;;;;27.83;21.70;;;7.50;1.00;9.00;101696.00;;;;5005547;28;21215;-78
2021/12/13 08:02:04;;;;;;;23.73;21.13;;;7.50;1.00;9.00;101715.00;;;;5010110;28;20461;-78
2021/12/13 08:04:45;;;;;;;21.87;19.83;;;7.50;1.00;8.90;101705.00;;;;5022162;28;20464;-77
2021/12/13 08:07:18;;;;;;;24.47;20.33;;;7.60;1.00;8.90;101713.00;;;;5017322;28;20554;-77
2021/12/13 08:09:52;;;;;;;21.17;19.00;;;7.60;1.00;9.10;101713.00;;;;5021783;28;20753;-78
2021/12/13 08:12:26;;;;;;;21.83;19.60;;;7.60;1.00;9.20;101721.00;;;;5016183;28;20449;-77
2021/12/13 08:15:16;;;;;;;21.93;19.43;;;7.70;1.00;9.20;101715.00;;;;5015544;28;20481;-78
2021/12/13 08:17:48;;;;;;;20.63;18.50;;;7.70;1.00;9.30;101717.00;;;;5019732;28;20483;-78
2021/12/13 08:20:23;;;;;;;21.70;19.60;;;7.70;1.00;9.30;101673.00;;;;5030166;28;20475;-78
2021/12/13 08:22:54;;;;;;;19.90;17.80;;;7.80;1.00;9.40;101704.00;;;;5059208;28;20439;-78
2021/12/13 08:25:27;;;;;;;20.83;18.70;;;7.80;1.00;9.40;101719.00;;;;5055530;28;20494;-78
2021/12/13 08:28:00;;;;;;;20.07;17.90;;;7.90;1.00;9.40;101728.00;;;;5065925;28;20452;-78
2021/12/13 08:30:33;;;;;;;19.50;17.17;;;7.90;1.00;9.40;101725.00;;;;5051777;28;20542;-78
2021/12/13 08:33:09;;;;;;;20.83;18.73;;;7.90;1.00;9.40;101710.00;;;;5056147;28;20630;-78
2021/12/13 08:35:58;;;;;;;20.47;17.83;;;8.00;1.00;9.50;101735.00;;;;5053756;28;20452;-78
2021/12/13 08:38:36;;;;;;;20.13;18.03;;;8.00;1.00;9.50;101733.00;;;;5042252;28;20877;-78
2021/12/13 08:41:20;;;;;;;20.17;18.07;;;8.00;1.00;9.50;101733.00;;;;5060902;28;20515;-77
2021/12/13 08:43:54;;;;;;;20.73;18.50;;;8.00;1.00;9.60;101741.00;;;;5060792;28;20448;-77
2021/12/13 08:46:39;;;;;;;21.63;19.10;;;8.00;1.00;9.60;101736.00;;;;5044040;28;20442;-77
2021/12/13 08:49:22;;;;;;;19.80;17.63;;;8.10;1.00;9.60;101738.00;;;;5055392;28;20453;-77
2021/12/13 08:51:59;;;;;;;18.90;16.90;;;8.10;1.00;9.70;101749.00;;;;5026278;28;20469;-79
2021/12/13 08:54:49;;;;;;;22.60;17.73;;;8.10;1.00;9.70;101740.00;;;;5043929;28;20539;-79
2021/12/13 08:57:39;;;;;;;19.50;17.37;;;8.20;1.00;9.70;101750.00;;;;5031804;28;20453;-79
2021/12/13 09:00:37;;;;;;;20.03;17.93;;;8.20;1.00;9.80;101735.00;;;;5045581;28;20486;-79
2021/12/13 09:03:35;;;;;;;21.30;19.10;;;8.20;1.00;10.00;101745.00;;;;5081760;28;20550;-77
2021/12/13 09:06:28;;;;;;;18.87;16.97;;;8.30;1.00;10.10;101746.00;;;;5039010;28;20464;-78
2021/12/13 09:09:06;;;;;;;20.00;17.87;;;8.30;1.00;10.10;101727.00;;;;5047136;28;20436;-78
2021/12/13 09:11:42;;;;;;;20.50;16.63;;;8.40;1.00;10.10;101764.00;;;;5022381;28;20567;-78
2021/12/13 09:14:18;;;;;;;22.10;16.80;;;8.50;1.00;10.20;101743.00;;;;5058634;28;20994;-78
2021/12/13 09:17:07;;;;;;;20.97;17.03;;;8.50;1.00;10.30;101742.00;;;;5051167;28;20462;-78
2021/12/13 09:19:47;;;;;;;19.60;17.60;;;8.60;1.00;10.40;101749.00;;;;5044597;28;20488;-78
2021/12/13 09:22:20;;;;;;;18.97;16.97;;;8.70;1.00;10.50;101733.00;;;;5052969;28;20493;-78
2021/12/13 09:24:55;;;;;;;17.67;15.97;;;8.70;1.00;10.50;101746.00;;;;5040479;28;20445;-77
2021/12/13 09:27:39;;;;;;;18.50;16.63;;;8.80;1.00;10.50;101752.00;;;;5053131;28;20447;-78
2021/12/13 09:30:34;;;;;;;18.57;16.57;;;8.90;1.00;10.60;101737.00;;;;5030142;28;20480;-77
2021/12/13 09:33:07;;;;;;;19.37;17.30;;;8.90;1.00;10.60;101757.00;;;;5044837;28;20467;-78
2021/12/13 09:35:42;;;;;;;16.10;14.53;;;8.90;1.00;10.70;101756.00;;;;5028654;28;20460;-78
2021/12/13 09:38:30;;;;;;;16.30;14.80;;;9.00;1.00;10.70;101759.00;;;;5045535;28;20459;-78
2021/12/13 09:41:17;;;;;;;16.67;15.07;;;9.10;1.00;10.90;101764.00;;;;5020468;28;20484;-79
2021/12/13 09:43:55;;;;;;;16.97;15.37;;;9.10;1.00;11.00;101740.00;;;;5037721;28;20457;-76
2021/12/13 09:46:34;;;;;;;18.07;15.93;;;9.20;1.00;11.10;101743.00;;;;5047575;28;20490;-82
2021/12/13 09:49:11;;;;;;;16.80;15.13;;;9.30;1.00;11.20;101717.00;;;;5051303;28;20549;-79
2021/12/13 09:51:46;;;;;;;16.40;14.70;;;9.40;1.00;11.30;101729.00;;;;5054306;28;20482;-78
2021/12/13 09:54:18;;;;;;;15.13;13.63;;;9.60;1.00;11.30;101743.00;;;;5055408;28;20574;-78
2021/12/13 09:56:50;;;;;;;14.63;12.93;;;9.60;1.00;11.30;101745.00;;;;5049174;28;20860;-79
2021/12/13 09:59:28;;;;;;;14.57;13.17;;;9.60;1.00;11.30;101750.00;;;;5040624;28;20464;-78
2021/12/13 10:02:01;;;;;;;16.07;14.20;;;9.70;1.00;11.20;101753.00;;;;5038197;28;21157;-78
2021/12/13 10:04:36;;;;;;;15.60;14.10;;;9.70;1.00;11.10;101746.00;;;;5037171;28;20957;-83
2021/12/13 10:07:10;;;;;;;16.33;14.70;;;9.70;1.00;11.20;101749.00;;;;5048055;28;20451;-79
2021/12/13 10:09:43;;;;;;;17.73;15.50;;;9.60;1.00;11.00;101731.00;;;;5071287;28;20452;-78
2021/12/13 10:12:16;;;;;;;17.87;15.97;;;9.60;1.00;10.80;101743.00;;;;5063008;28;20491;-78
2021/12/13 10:14:52;;;;;;;18.90;17.00;;;9.40;1.00;10.80;101727.00;;;;5055730;28;20475;-78
2021/12/13 10:17:28;;;;;;;19.10;17.13;;;9.40;1.00;10.70;101688.00;;;;5038511;28;20541;-78
2021/12/13 10:20:00;;;;;;;21.27;19.07;;;9.30;1.00;10.70;101745.00;;;;5068265;28;20471;-79
2021/12/13 10:22:33;;;;;;;20.60;18.60;;;9.20;1.00;10.50;101742.00;;;;5062326;28;20471;-80
2021/12/13 10:25:10;;;;;;;19.00;17.20;;;9.10;1.00;10.50;101737.00;;;;5045424;28;20550;-79
2021/12/13 10:27:39;;;;;;;19.33;17.40;;;9.00;1.00;10.40;101727.00;;;;5044681;28;20527;-79
2021/12/13 10:30:22;;;;;;;17.90;16.10;;;9.00;1.00;10.40;101733.00;;;;5043504;28;20565;-78
2021/12/13 10:32:53;;;;;;;19.50;17.50;;;9.00;1.00;10.30;101729.00;;;;5038604;28;20460;-80
2021/12/13 10:35:26;;;;;;;18.80;16.83;;;9.00;1.00;10.50;101740.00;;;;5049045;28;20525;-79
2021/12/13 10:37:59;;;;;;;19.57;17.70;;;9.00;1.00;10.80;101718.00;;;;5063427;28;20504;-79
2021/12/13 10:40:31;;;;;;;18.87;16.93;;;9.20;1.00;11.20;101709.00;;;;5061392;28;20498;-78
2021/12/13 10:43:10;;;;;;;18.80;16.80;;;9.50;1.00;11.40;101688.00;;;;5066330;28;20455;-79
2021/12/13 10:45:46;;;;;;;17.43;15.63;;;9.80;1.00;11.70;101722.00;;;;5069358;28;20468;-78
2021/12/13 10:48:18;;;;;;;17.10;15.30;;;10.10;1.00;11.90;101704.00;;;;5056408;28;20504;-78
2021/12/13 10:50:51;;;;;;;15.13;13.50;;;10.40;1.00;11.90;101715.00;;;;5046431;28;20488;-79
2021/12/13 10:53:24;;;;;;;17.30;12.70;;;10.40;1.00;11.80;101704.00;;;;5046895;28;20456;-79
2021/12/13 10:55:58;;;;;;;18.93;17.10;;;10.40;1.00;12.10;101713.00;;;;5040738;28;20922;-79
2021/12/13 10:58:33;;;;;;;14.23;12.80;;;10.50;1.00;12.10;101699.00;;;;5047939;28;21184;-79
2021/12/13 11:01:08;;;;;;;16.13;12.60;;;10.60;1.00;12.20;101697.00;;;;5029162;28;20924;-79
2021/12/13 11:03:38;;;;;;;13.33;12.00;;;10.60;1.00;12.20;101708.00;;;;5048556;28;20439;-78
2021/12/13 11:06:10;;;;;;;15.50;12.70;;;10.60;1.00;12.50;101712.00;;;;5053423;28;20459;-78
2021/12/13 11:08:42;;;;;;;13.70;12.30;;;10.70;1.00;12.50;101697.00;;;;5036697;28;20455;-79
2021/12/13 11:11:20;;;;;;;13.70;12.37;;;10.80;1.00;12.20;101680.00;;;;5048939;28;20526;-79
2021/12/13 11:13:54;;;;;;;14.80;13.30;;;10.70;1.00;12.30;101706.00;;;;5053563;28;20441;-78
2021/12/13 11:16:34;;;;;;;15.80;12.80;;;10.60;1.00;12.10;101715.00;;;;5043709;28;20510;-79
2021/12/13 11:19:04;;;;;;;14.53;13.03;;;10.70;1.00;12.60;101718.00;;;;5047942;28;20452;-79
2021/12/13 11:21:37;;;;;;;12.97;11.77;;;10.80;1.00;12.60;101706.00;;;;5053771;28;20586;-78
2021/12/13 11:24:09;;;;;;;13.57;12.20;;;10.90;1.00;12.10;101705.00;;;;5022607;28;20503;-79
2021/12/13 11:26:44;;;;;;;13.30;12.10;;;10.70;1.00;12.10;101706.00;;;;5049173;28;20455;-79
2021/12/13 11:29:15;;;;;;;13.17;11.80;;;10.50;1.00;12.00;101709.00;;;;5053142;28;20520;-79
2021/12/13 11:32:38;;;;;;;13.90;12.63;;;10.50;1.00;12.00;101716.00;;;;5046580;28;20970;-79
2021/12/13 11:36:03;;;;;;;13.37;12.07;;;10.40;1.00;12.00;101711.00;;;;5044527;28;20506;-79
2021/12/13 11:39:16;;;;;;;13.60;12.40;;;10.30;1.00;12.20;101716.00;;;;5053543;28;20462;-79
2021/12/13 11:42:36;;;;;;;13.83;12.40;;;10.30;1.00;12.30;101706.00;;;;5046555;28;20526;-79